Overview Statistics Trail Chart Weather Telemetry Raw packets
 

This is the latest recevied weather packets stored in our database for station/object LRTR. If no packets are shown the sender has not sent any weather packets the latest 10 day(s).

<< 20 21 22 23 24 25 26 >>
Time Temp. Humidity Pressure Rain* Wind** Luminosity Snow
1777259885 2.22° C 75% 1023 hPa - - - -
1777258985 2.22° C 75% 1023 hPa - - - -
1777258085 2.22° C 75% 1023 hPa - - - -
1777257185 2.22° C 75% 1023 hPa - - - -
1777256285 2.78° C 70% 1023 hPa - - - -
1777255385 2.78° C 70% 1023 hPa - - - -
1777254485 3.89° C 65% 1023 hPa - - - -
1777253585 3.89° C 65% 1023 hPa - - - -
1777252686 5° C 57% 1023 hPa - - - -
1777251786 5° C 57% 1023 hPa - - - -
1777250885 5° C 57% 1022 hPa - - - -
1777249985 5° C 57% 1022 hPa - - - -
1777249085 3.89° C 65% 1022 hPa - - - -
1777248200 3.89° C 65% 1022 hPa - - - -
1777247285 5° C 61% 1022 hPa - - - -
1777246415 5° C 61% 1022 hPa - - - -
1777245485 6.11° C 57% 1022 hPa - - - -
1777244585 6.11° C 57% 1022 hPa - - - -
1777243685 7.22° C 49% 1022 hPa - - - -
1777242785 7.22° C 49% 1022 hPa - - - -
1777241886 7.22° C 53% 1022 hPa - - - -
1777240984 7.22° C 53% 1022 hPa - - - -
1777240085 7.22° C 53% 1022 hPa - - - -
1777239185 7.22° C 53% 1022 hPa - - - -
1777238285 6.11° C 61% 1021 hPa - - - -

* Rain since midnight (hover to see other rain measurements)
** Current wind speed in m/s (hover to see current wind gust speed)